createdAt,value
2023-03-25T00:01:08.913Z,99110.34
2023-03-25T00:04:10.367Z,99100.53
2023-03-25T00:07:12.174Z,99107.81
2023-03-25T00:10:14.281Z,99105.09
2023-03-25T00:13:15.724Z,99099.88
2023-03-25T00:16:19.017Z,99090.91
2023-03-25T00:19:21.232Z,99095.47
2023-03-25T00:22:23.301Z,99100.91
2023-03-25T00:25:24.798Z,99097.34
2023-03-25T00:28:30.763Z,99090.03
2023-03-25T00:31:32.458Z,99093.81
2023-03-25T00:34:35.162Z,99096.72
2023-03-25T00:37:36.614Z,99092.16
2023-03-25T00:40:38.405Z,99097.56
2023-03-25T00:43:40.812Z,99101.31
2023-03-25T00:46:42.417Z,99100.66
2023-03-25T00:49:44.420Z,99105.91
2023-03-25T00:52:45.871Z,99102.53
2023-03-25T00:55:47.393Z,99101.53
2023-03-25T00:58:49.088Z,99109.84
2023-03-25T01:01:53.147Z,99099.81
2023-03-25T01:04:55.018Z,99103.59
2023-03-25T01:07:56.550Z,99094.59
2023-03-25T01:10:58.018Z,99091.03
2023-03-25T01:13:59.803Z,99103.59
2023-03-25T01:17:01.303Z,99097.50
2023-03-25T01:20:09.822Z,99094.78
2023-03-25T01:23:11.391Z,99094.78
2023-03-25T01:26:13.655Z,99097.50
2023-03-25T01:29:18.379Z,99097.50
2023-03-25T01:32:20.207Z,99100.41
2023-03-25T01:35:22.856Z,99102.28
2023-03-25T01:38:24.623Z,99097.69
2023-03-25T01:41:42.328Z,99102.28
2023-03-25T01:44:53.241Z,99106.69
2023-03-25T01:48:04.502Z,99099.56
2023-03-25T01:51:15.678Z,99098.91
2023-03-25T01:54:18.020Z,99098.91
2023-03-25T01:57:21.912Z,99102.69
2023-03-25T02:00:23.694Z,99111.00
2023-03-25T02:03:25.351Z,99106.63
2023-03-25T02:06:46.776Z,99095.75
2023-03-25T02:09:49.651Z,99099.53
2023-03-25T02:12:51.173Z,99105.97
2023-03-25T02:16:19.167Z,99091.56
2023-03-25T02:20:08.985Z,99088.19
2023-03-25T02:23:29.210Z,99091.31
2023-03-25T02:26:36.799Z,99095.69
2023-03-25T02:30:15.911Z,99086.72
2023-03-25T02:33:48.437Z,99089.66
2023-03-25T02:37:13.677Z,99084.59
2023-03-25T02:41:02.805Z,99088.16
2023-03-25T02:44:48.054Z,99078.31
2023-03-25T02:47:55.269Z,99070.41
2023-03-25T02:50:59.690Z,99073.28
2023-03-25T02:54:09.612Z,99071.41
2023-03-25T02:57:17.181Z,99069.53
2023-03-25T03:00:23.746Z,99061.41
2023-03-25T03:03:29.057Z,99074.97
2023-03-25T03:06:42.991Z,99077.66
2023-03-25T03:09:49.597Z,99081.44
2023-03-25T03:13:29.159Z,99068.69
2023-03-25T03:16:50.078Z,99059.53
2023-03-25T03:19:58.079Z,99059.72
2023-03-25T03:23:11.742Z,99054.31
2023-03-25T03:26:33.887Z,99054.31
2023-03-25T03:29:40.531Z,99046.34
2023-03-25T03:32:57.660Z,99046.16
2023-03-25T03:36:04.984Z,99053.66
2023-03-25T03:39:19.823Z,99050.94
2023-03-25T03:42:43.247Z,99054.47
2023-03-25T03:45:48.946Z,99053.88
2023-03-25T03:48:56.555Z,99062.00
2023-03-25T03:52:10.180Z,99050.09
2023-03-25T03:55:21.094Z,99048.44
2023-03-25T03:58:28.435Z,99056.59
2023-03-25T04:01:35.360Z,99052.16
2023-03-25T04:04:38.715Z,99062.38
2023-03-25T04:08:00.688Z,99059.47
2023-03-25T04:11:09.624Z,99054.22
2023-03-25T04:14:13.297Z,99075.94
2023-03-25T04:17:14.755Z,99058.00
2023-03-25T04:20:23.929Z,99062.38
2023-03-25T04:23:25.961Z,99065.28
2023-03-25T04:26:33.551Z,99069.88
2023-03-25T04:29:35.167Z,99074.44
2023-03-25T04:32:36.662Z,99060.06
2023-03-25T04:35:38.920Z,99064.66
2023-03-25T04:38:41.329Z,99064.66
2023-03-25T04:41:43.985Z,99060.44
2023-03-25T04:44:45.434Z,99061.28
2023-03-25T04:47:49.150Z,99076.53
2023-03-25T04:50:55.862Z,99084.84
2023-03-25T04:53:57.399Z,99089.44
2023-03-25T04:56:59.101Z,99083.19
2023-03-25T05:00:00.699Z,99080.47
2023-03-25T05:03:02.643Z,99076.91
2023-03-25T05:06:04.368Z,99082.31
2023-03-25T05:09:07.635Z,99079.63
2023-03-25T05:12:11.217Z,99074.41
2023-03-25T05:15:13.602Z,99080.84
2023-03-25T05:18:16.886Z,99083.38
2023-03-25T05:21:18.596Z,99083.56
2023-03-25T05:24:20.143Z,99077.28
2023-03-25T05:27:22.200Z,99073.75
2023-03-25T05:30:23.731Z,99080.22
2023-03-25T05:33:25.418Z,99087.50
2023-03-25T05:36:26.959Z,99093.78
2023-03-25T05:39:28.461Z,99104.81
2023-03-25T05:42:29.936Z,99102.09
2023-03-25T05:45:31.472Z,99112.94
2023-03-25T05:48:33.279Z,99102.28
2023-03-25T05:51:38.777Z,99099.38
2023-03-25T05:54:42.028Z,99105.00
2023-03-25T05:57:44.044Z,99103.13
2023-03-25T06:00:47.019Z,99100.59
2023-03-25T06:03:48.886Z,99097.91
2023-03-25T06:06:50.520Z,99098.72
2023-03-25T06:09:54.517Z,99088.09
2023-03-25T06:12:56.106Z,99090.59
2023-03-25T06:15:58.122Z,99088.09
2023-03-25T06:19:00.580Z,99098.06
2023-03-25T06:22:03.688Z,99093.53
2023-03-25T06:25:05.619Z,99088.94
2023-03-25T06:28:07.151Z,99102.66
2023-03-25T06:31:20.271Z,99087.22
2023-03-25T06:34:23.720Z,99093.88
2023-03-25T06:37:26.336Z,99092.88
2023-03-25T06:40:28.452Z,99094.75
2023-03-25T06:43:30.747Z,99102.00
2023-03-25T06:46:50.729Z,99103.06
2023-03-25T06:49:58.803Z,99091.38
2023-03-25T06:53:00.426Z,99091.38
2023-03-25T06:56:01.948Z,99096.97
2023-03-25T06:59:04.025Z,99104.09
2023-03-25T07:02:05.779Z,99100.72
2023-03-25T07:05:07.745Z,99098.84
2023-03-25T07:08:09.250Z,99098.03
2023-03-25T07:11:15.593Z,99090.91
2023-03-25T07:14:17.099Z,99087.34
2023-03-25T07:17:18.611Z,99106.34
2023-03-25T07:20:20.265Z,99108.03
2023-03-25T07:23:21.853Z,99109.88
2023-03-25T07:26:23.416Z,99124.47
2023-03-25T07:29:24.878Z,99117.38
2023-03-25T07:32:26.413Z,99114.66
2023-03-25T07:35:28.003Z,99117.38
2023-03-25T07:38:29.600Z,99119.06
2023-03-25T07:41:31.088Z,99117.19
2023-03-25T07:44:45.519Z,99121.78
2023-03-25T07:47:50.447Z,99125.31
2023-03-25T07:50:52.625Z,99124.31
2023-03-25T07:53:54.160Z,99128.88
2023-03-25T07:56:55.737Z,99115.31
2023-03-25T07:59:57.303Z,99123.44
2023-03-25T08:02:58.915Z,99134.94
2023-03-25T08:06:02.063Z,99123.09
2023-03-25T08:09:03.859Z,99129.34
2023-03-25T08:12:05.775Z,99126.41
2023-03-25T08:15:08.312Z,99130.00
2023-03-25T08:18:09.826Z,99138.97
2023-03-25T08:21:12.796Z,99127.06
2023-03-25T08:24:14.478Z,99138.75
2023-03-25T08:27:16.550Z,99140.47
2023-03-25T08:30:18.368Z,99153.81
2023-03-25T08:33:21.607Z,99143.81
2023-03-25T08:36:23.305Z,99146.53
2023-03-25T08:39:29.946Z,99137.53
2023-03-25T08:42:31.422Z,99150.91
2023-03-25T08:45:34.612Z,99136.31
2023-03-25T08:48:36.661Z,99138.00
2023-03-25T08:51:38.232Z,99148.03
2023-03-25T08:54:39.672Z,99146.16
2023-03-25T08:57:42.319Z,99136.97
2023-03-25T09:00:44.376Z,99137.63
2023-03-25T09:03:46.636Z,99143.03
2023-03-25T09:07:11.500Z,99135.75
2023-03-25T09:10:12.953Z,99142.88
2023-03-25T09:13:14.518Z,99147.44
2023-03-25T09:16:16.119Z,99143.69
2023-03-25T09:19:17.681Z,99143.69
2023-03-25T09:22:19.181Z,99145.38
2023-03-25T09:25:20.650Z,99147.06
2023-03-25T09:28:22.121Z,99141.81
2023-03-25T09:31:23.756Z,99157.06
2023-03-25T09:34:26.943Z,99151.44
2023-03-25T09:37:28.408Z,99138.94
2023-03-25T09:40:30.231Z,99142.47
2023-03-25T09:43:38.200Z,99137.03
2023-03-25T09:46:40.108Z,99137.03
2023-03-25T09:49:53.497Z,99136.00
2023-03-25T09:53:18.040Z,99141.63
2023-03-25T09:56:29.493Z,99137.69
2023-03-25T09:59:33.971Z,99139.56
2023-03-25T10:02:52.228Z,99129.56
2023-03-25T10:06:01.599Z,99131.22
2023-03-25T10:09:27.244Z,99132.91
2023-03-25T10:12:28.643Z,99142.25
2023-03-25T10:15:39.260Z,99129.56
2023-03-25T10:19:17.839Z,99123.94
2023-03-25T10:22:33.991Z,99127.47
2023-03-25T10:25:39.218Z,99120.38
2023-03-25T10:29:06.205Z,99127.69
2023-03-25T10:32:16.855Z,99115.78
2023-03-25T10:35:20.262Z,99119.53
2023-03-25T10:38:26.612Z,99132.91
2023-03-25T10:41:38.092Z,99130.00
2023-03-25T10:44:39.655Z,99112.06
2023-03-25T10:47:45.861Z,99111.00
2023-03-25T10:50:49.639Z,99112.91
2023-03-25T10:53:53.138Z,99108.31
2023-03-25T10:56:58.331Z,99099.34
2023-03-25T11:00:18.738Z,99103.72
2023-03-25T11:03:30.600Z,99112.50
2023-03-25T11:06:37.254Z,99109.97
2023-03-25T11:09:38.846Z,99101.00
2023-03-25T11:12:45.226Z,99113.56
2023-03-25T11:15:47.532Z,99102.69
2023-03-25T11:18:51.307Z,99115.41
2023-03-25T11:21:57.004Z,99115.22
2023-03-25T11:25:16.588Z,99109.59
2023-03-25T11:28:22.831Z,99117.94
2023-03-25T11:31:27.821Z,99120.63
2023-03-25T11:34:29.768Z,99119.81
2023-03-25T11:37:36.646Z,99108.13
2023-03-25T11:40:48.330Z,99120.81
2023-03-25T11:43:50.309Z,99119.81
2023-03-25T11:46:55.499Z,99112.31
2023-03-25T11:49:57.111Z,99097.06
2023-03-25T11:53:03.283Z,99093.94
2023-03-25T11:56:08.222Z,99105.84
2023-03-25T11:59:23.739Z,99095.84
2023-03-25T12:02:38.375Z,99108.56
2023-03-25T12:05:41.477Z,99107.72
2023-03-25T12:08:50.821Z,99089.38
2023-03-25T12:12:23.246Z,99083.97
2023-03-25T12:15:47.664Z,99078.53
2023-03-25T12:19:01.263Z,99084.97
2023-03-25T12:22:14.947Z,99076.44
2023-03-25T12:25:53.714Z,99082.75
2023-03-25T12:29:10.384Z,99093.78
2023-03-25T12:32:37.425Z,99082.09
2023-03-25T12:35:54.569Z,99096.47
2023-03-25T12:38:59.036Z,99109.22
2023-03-25T12:42:09.899Z,99094.81
2023-03-25T12:45:39.665Z,99086.69
2023-03-25T12:48:58.863Z,99087.50
2023-03-25T12:52:06.334Z,99072.91
2023-03-25T12:55:32.700Z,99076.09
2023-03-25T12:58:37.280Z,99067.94
2023-03-25T13:01:53.611Z,99068.78
2023-03-25T13:05:16.402Z,99055.00
2023-03-25T13:08:36.378Z,99038.28
2023-03-25T13:11:43.233Z,99055.38
2023-03-25T13:15:09.888Z,99043.69
2023-03-25T13:18:14.778Z,99056.44
2023-03-25T13:21:24.129Z,99059.16
2023-03-25T13:24:34.985Z,99059.16
2023-03-25T13:27:41.677Z,99066.47
2023-03-25T13:30:46.984Z,99074.59
2023-03-25T13:34:16.631Z,99086.28
2023-03-25T13:37:38.963Z,99085.44
2023-03-25T13:40:55.166Z,99090.00
2023-03-25T13:44:16.464Z,99080.22
2023-03-25T13:47:43.312Z,99098.16
2023-03-25T13:50:44.972Z,99106.50
2023-03-25T13:53:56.766Z,99119.03
2023-03-25T13:57:29.245Z,99124.44
2023-03-25T14:01:07.100Z,99116.31
2023-03-25T14:04:42.278Z,99111.72
2023-03-25T14:08:22.843Z,99120.72
2023-03-25T14:11:40.421Z,99111.53
2023-03-25T14:14:47.529Z,99118.84
2023-03-25T14:17:51.040Z,99118.00
2023-03-25T14:20:53.240Z,99105.47
2023-03-25T14:24:26.242Z,99093.38
2023-03-25T14:27:32.447Z,99107.16
2023-03-25T14:30:34.837Z,99088.16
2023-03-25T14:34:12.309Z,99094.84
2023-03-25T14:37:25.956Z,99078.84
2023-03-25T14:40:59.519Z,99082.38
2023-03-25T14:44:18.551Z,99097.00
2023-03-25T14:47:23.446Z,99093.84
2023-03-25T14:50:25.006Z,99095.69
2023-03-25T14:53:27.303Z,99086.94
2023-03-25T14:56:37.413Z,99110.31
2023-03-25T14:59:43.528Z,99134.91
2023-03-25T15:02:52.430Z,99134.91
2023-03-25T15:05:59.506Z,99118.84
2023-03-25T15:09:09.598Z,99118.84
2023-03-25T15:12:16.139Z,99112.59
2023-03-25T15:15:28.999Z,99104.44
2023-03-25T15:18:36.987Z,99088.34
2023-03-25T15:21:59.147Z,99100.88
2023-03-25T15:25:02.379Z,99104.63
2023-03-25T15:28:28.046Z,99104.63
2023-03-25T15:31:38.151Z,99111.09
2023-03-25T15:34:55.490Z,99104.63
2023-03-25T15:38:00.089Z,99099.19
2023-03-25T15:41:44.914Z,99112.75
2023-03-25T15:45:05.646Z,99120.72
2023-03-25T15:48:51.716Z,99119.03
2023-03-25T15:52:22.635Z,99110.03
2023-03-25T15:55:31.115Z,99117.53
2023-03-25T15:58:41.641Z,99113.16
2023-03-25T16:01:47.464Z,99103.31
2023-03-25T16:04:50.933Z,99098.94
2023-03-25T16:07:52.699Z,99098.09
2023-03-25T16:10:54.327Z,99098.94
2023-03-25T16:14:28.271Z,99105.00
2023-03-25T16:17:33.510Z,99089.75
2023-03-25T16:20:36.425Z,99074.53
2023-03-25T16:23:39.254Z,99064.72
2023-03-25T16:26:46.094Z,99055.53
2023-03-25T16:29:49.537Z,99055.72
2023-03-25T16:32:51.658Z,99060.31
2023-03-25T16:35:56.795Z,99062.38
2023-03-25T16:38:58.386Z,99054.22
2023-03-25T16:42:17.597Z,99058.63
2023-03-25T16:45:19.422Z,99043.38
2023-03-25T16:48:27.040Z,99055.94
2023-03-25T16:51:35.200Z,99058.00
2023-03-25T16:55:04.742Z,99056.94
2023-03-25T16:58:15.198Z,99065.09
2023-03-25T17:01:17.329Z,99072.59
2023-03-25T17:04:26.136Z,99078.84
2023-03-25T17:07:28.891Z,99057.34
2023-03-25T17:10:42.629Z,99060.88
2023-03-25T17:13:54.725Z,99069.88
2023-03-25T17:16:57.080Z,99078.22
2023-03-25T17:20:05.822Z,99068.84
2023-03-25T17:23:17.958Z,99061.75
2023-03-25T17:26:20.956Z,99058.16
2023-03-25T17:29:22.560Z,99072.59
2023-03-25T17:32:24.804Z,99068.00
2023-03-25T17:35:31.489Z,99083.25
2023-03-25T17:38:38.331Z,99095.78
2023-03-25T17:41:40.275Z,99094.09
2023-03-25T17:44:45.282Z,99094.75
2023-03-25T17:47:47.206Z,99108.47
2023-03-25T17:50:54.245Z,99112.69
2023-03-25T17:53:56.120Z,99119.16
2023-03-25T17:56:57.714Z,99116.44
2023-03-25T17:59:59.292Z,99118.31
2023-03-25T18:03:00.884Z,99132.72
2023-03-25T18:06:02.535Z,99138.97
2023-03-25T18:09:14.015Z,99136.25
2023-03-25T18:12:15.591Z,99147.94
2023-03-25T18:15:17.162Z,99158.63
2023-03-25T18:18:24.082Z,99151.97
2023-03-25T18:21:25.880Z,99163.00
2023-03-25T18:24:27.497Z,99178.06
2023-03-25T18:27:40.634Z,99178.06
2023-03-25T18:30:50.950Z,99172.44
2023-03-25T18:33:53.264Z,99166.19
2023-03-25T18:36:54.777Z,99162.66
2023-03-25T18:39:56.595Z,99165.41
2023-03-25T18:42:58.071Z,99162.59
2023-03-25T18:45:59.680Z,99171.06
2023-03-25T18:49:02.693Z,99174.25
2023-03-25T18:52:04.375Z,99188.72
2023-03-25T18:55:06.444Z,99181.91
2023-03-25T18:58:17.450Z,99191.63
2023-03-25T19:01:20.536Z,99190.03
2023-03-25T19:04:22.287Z,99194.69
2023-03-25T19:07:24.004Z,99189.56
2023-03-25T19:10:31.359Z,99191.31
2023-03-25T19:13:33.132Z,99201.59
2023-03-25T19:16:34.708Z,99202.94
2023-03-25T19:19:36.748Z,99209.63
2023-03-25T19:22:38.315Z,99211.13
2023-03-25T19:25:40.871Z,99214.13
2023-03-25T19:28:42.661Z,99217.50
2023-03-25T19:31:44.234Z,99218.19
2023-03-25T19:34:47.508Z,99229.69
2023-03-25T19:37:52.026Z,99231.34
2023-03-25T19:41:10.452Z,99232.00
2023-03-25T19:44:12.711Z,99227.41
2023-03-25T19:47:14.312Z,99223.50
2023-03-25T19:50:19.038Z,99235.00
2023-03-25T19:53:21.635Z,99235.81
2023-03-25T19:56:23.162Z,99241.06
2023-03-25T19:59:24.918Z,99238.38
2023-03-25T20:02:26.538Z,99247.34
2023-03-25T20:05:32.728Z,99243.41
2023-03-25T20:08:34.312Z,99237.97
2023-03-25T20:11:35.826Z,99246.13
2023-03-25T20:14:37.813Z,99236.94
2023-03-25T20:17:40.364Z,99235.09
2023-03-25T20:20:42.422Z,99234.44
2023-03-25T20:23:43.951Z,99251.53
2023-03-25T20:26:45.621Z,99245.94
2023-03-25T20:29:47.089Z,99256.78
2023-03-25T20:32:49.226Z,99262.00
2023-03-25T20:35:51.168Z,99265.56
2023-03-25T20:38:57.685Z,99261.00
2023-03-25T20:41:59.594Z,99260.13
2023-03-25T20:45:01.063Z,99259.13
2023-03-25T20:48:02.705Z,99267.25
2023-03-25T20:51:07.080Z,99266.41
2023-03-25T20:54:09.005Z,99262.84
2023-03-25T20:57:10.888Z,99266.41
2023-03-25T21:00:14.386Z,99263.50
2023-03-25T21:03:16.209Z,99274.34
2023-03-25T21:06:24.523Z,99264.34
2023-03-25T21:09:27.248Z,99279.78
2023-03-25T21:12:40.666Z,99272.47
2023-03-25T21:15:44.976Z,99280.59
2023-03-25T21:18:49.167Z,99271.63
2023-03-25T21:21:50.721Z,99271.63
2023-03-25T21:24:52.269Z,99272.47
2023-03-25T21:27:56.623Z,99274.34
2023-03-25T21:31:05.712Z,99275.00
2023-03-25T21:34:07.295Z,99282.31
2023-03-25T21:37:09.067Z,99275.84
2023-03-25T21:40:12.091Z,99285.84
2023-03-25T21:43:13.622Z,99290.44
2023-03-25T21:46:15.286Z,99288.56
2023-03-25T21:49:16.955Z,99298.59
2023-03-25T21:52:18.451Z,99297.53
2023-03-25T21:55:22.273Z,99302.13
2023-03-25T21:58:24.602Z,99300.25
2023-03-25T22:01:29.792Z,99301.31
2023-03-25T22:04:33.553Z,99297.75
2023-03-25T22:07:35.539Z,99301.47
2023-03-25T22:10:37.061Z,99306.06
2023-03-25T22:13:39.585Z,99312.31
2023-03-25T22:16:41.082Z,99317.75
2023-03-25T22:19:42.624Z,99311.66
2023-03-25T22:22:44.055Z,99315.41
2023-03-25T22:25:45.938Z,99320.00
2023-03-25T22:28:47.790Z,99326.44
2023-03-25T22:31:50.656Z,99328.31
2023-03-25T22:34:52.362Z,99321.22
2023-03-25T22:37:55.322Z,99323.28
2023-03-25T22:40:56.913Z,99338.72
2023-03-25T22:43:59.332Z,99327.88
2023-03-25T22:47:00.992Z,99341.44
2023-03-25T22:50:02.588Z,99341.59
2023-03-25T22:53:04.090Z,99338.22
2023-03-25T22:56:06.674Z,99349.09
2023-03-25T22:59:08.215Z,99350.97
2023-03-25T23:02:12.819Z,99349.94
2023-03-25T23:05:14.780Z,99353.00
2023-03-25T23:08:16.313Z,99351.34
2023-03-25T23:11:21.249Z,99357.59
2023-03-25T23:14:22.791Z,99353.22
2023-03-25T23:17:25.827Z,99351.50
2023-03-25T23:20:29.215Z,99352.56
2023-03-25T23:23:30.842Z,99358.81
2023-03-25T23:26:39.180Z,99364.22
2023-03-25T23:29:41.578Z,99371.72
2023-03-25T23:32:43.181Z,99366.28
2023-03-25T23:35:44.767Z,99369.19
2023-03-25T23:38:47.936Z,99371.91
2023-03-25T23:41:50.600Z,99374.63
2023-03-25T23:44:52.695Z,99372.09
2023-03-25T23:47:54.494Z,99385.66
2023-03-25T23:50:56.690Z,99389.19
2023-03-25T23:53:58.593Z,99376.66
2023-03-25T23:57:00.600Z,99378.56
